sensor_id;sensor_type;location;lat;lon;timestamp;temperature;humidity
64599;SHT31;51008;51.504;11.548;2023-01-19T00:00:05;-2.67;90.19
64599;SHT31;51008;51.504;11.548;2023-01-19T00:05:07;-2.68;90.47
64599;SHT31;51008;51.504;11.548;2023-01-19T00:10:09;-2.64;90.48
64599;SHT31;51008;51.504;11.548;2023-01-19T00:15:10;-2.47;90.45
64599;SHT31;51008;51.504;11.548;2023-01-19T00:20:11;-2.47;90.28
64599;SHT31;51008;51.504;11.548;2023-01-19T00:25:12;-2.54;90.09
64599;SHT31;51008;51.504;11.548;2023-01-19T00:30:16;-2.56;90.54
64599;SHT31;51008;51.504;11.548;2023-01-19T00:35:17;-2.54;90.51
64599;SHT31;51008;51.504;11.548;2023-01-19T00:40:18;-2.67;90.35
64599;SHT31;51008;51.504;11.548;2023-01-19T00:45:21;-2.56;90.29
64599;SHT31;51008;51.504;11.548;2023-01-19T00:50:27;-2.63;89.92
64599;SHT31;51008;51.504;11.548;2023-01-19T00:55:30;-2.74;90.64
64599;SHT31;51008;51.504;11.548;2023-01-19T01:00:31;-2.81;90.71
64599;SHT31;51008;51.504;11.548;2023-01-19T01:05:32;-3.02;90.68
64599;SHT31;51008;51.504;11.548;2023-01-19T01:10:33;-2.91;91.39
64599;SHT31;51008;51.504;11.548;2023-01-19T01:15:34;-2.89;91.11
64599;SHT31;51008;51.504;11.548;2023-01-19T01:20:35;-3.03;91.01
64599;SHT31;51008;51.504;11.548;2023-01-19T01:25:36;-3.03;91.67
64599;SHT31;51008;51.504;11.548;2023-01-19T01:30:37;-3.09;91.94
64599;SHT31;51008;51.504;11.548;2023-01-19T01:35:38;-3.07;91.98
64599;SHT31;51008;51.504;11.548;2023-01-19T01:40:39;-3.26;91.54
64599;SHT31;51008;51.504;11.548;2023-01-19T01:45:40;-3.27;91.75
64599;SHT31;51008;51.504;11.548;2023-01-19T01:50:56;-3.13;92.36
64599;SHT31;51008;51.504;11.548;2023-01-19T01:55:58;-2.78;91.79
64599;SHT31;51008;51.504;11.548;2023-01-19T02:01:00;-2.68;91.10
64599;SHT31;51008;51.504;11.548;2023-01-19T02:06:04;-2.47;90.30
64599;SHT31;51008;51.504;11.548;2023-01-19T02:11:05;-2.49;90.14
64599;SHT31;51008;51.504;11.548;2023-01-19T02:16:07;-2.53;90.41
64599;SHT31;51008;51.504;11.548;2023-01-19T02:21:25;-2.47;90.19
64599;SHT31;51008;51.504;11.548;2023-01-19T02:26:34;-2.44;89.89
64599;SHT31;51008;51.504;11.548;2023-01-19T02:31:37;-2.44;89.79
64599;SHT31;51008;51.504;11.548;2023-01-19T02:36:48;-2.43;89.69
64599;SHT31;51008;51.504;11.548;2023-01-19T02:41:53;-2.49;89.83
64599;SHT31;51008;51.504;11.548;2023-01-19T02:46:55;-2.47;89.93
64599;SHT31;51008;51.504;11.548;2023-01-19T02:51:56;-2.58;89.85
64599;SHT31;51008;51.504;11.548;2023-01-19T03:07:43;-2.92;90.53
64599;SHT31;51008;51.504;11.548;2023-01-19T03:13:40;-3.00;90.72
64599;SHT31;51008;51.504;11.548;2023-01-19T03:18:19;-2.91;91.18
64599;SHT31;51008;51.504;11.548;2023-01-19T03:23:25;-2.93;91.15
64599;SHT31;51008;51.504;11.548;2023-01-19T03:28:28;-2.89;91.12
64599;SHT31;51008;51.504;11.548;2023-01-19T03:33:32;-2.78;90.87
64599;SHT31;51008;51.504;11.548;2023-01-19T03:38:36;-2.77;90.71
64599;SHT31;51008;51.504;11.548;2023-01-19T03:43:38;-2.65;90.13
64599;SHT31;51008;51.504;11.548;2023-01-19T03:48:40;-2.61;89.79
64599;SHT31;51008;51.504;11.548;2023-01-19T03:53:41;-2.54;89.43
64599;SHT31;51008;51.504;11.548;2023-01-19T03:58:42;-2.63;89.41
64599;SHT31;51008;51.504;11.548;2023-01-19T04:03:43;-2.67;89.55
64599;SHT31;51008;51.504;11.548;2023-01-19T04:08:46;-2.64;89.41
64599;SHT31;51008;51.504;11.548;2023-01-19T04:13:48;-2.68;89.69
64599;SHT31;51008;51.504;11.548;2023-01-19T04:18:49;-2.70;89.91
64599;SHT31;51008;51.504;11.548;2023-01-19T04:23:50;-2.56;89.60
64599;SHT31;51008;51.504;11.548;2023-01-19T04:28:51;-2.54;89.55
64599;SHT31;51008;51.504;11.548;2023-01-19T04:33:52;-2.49;89.12
64599;SHT31;51008;51.504;11.548;2023-01-19T04:38:53;-2.47;88.91
64599;SHT31;51008;51.504;11.548;2023-01-19T04:43:54;-2.36;88.52
64599;SHT31;51008;51.504;11.548;2023-01-19T04:48:55;-2.33;88.38
64599;SHT31;51008;51.504;11.548;2023-01-19T04:53:56;-2.26;88.29
64599;SHT31;51008;51.504;11.548;2023-01-19T04:58:56;-2.25;88.05
64599;SHT31;51008;51.504;11.548;2023-01-19T05:03:58;-2.25;88.00
64599;SHT31;51008;51.504;11.548;2023-01-19T05:08:59;-2.26;88.20
64599;SHT31;51008;51.504;11.548;2023-01-19T05:14:00;-2.22;88.16
64599;SHT31;51008;51.504;11.548;2023-01-19T05:19:01;-2.19;88.18
64599;SHT31;51008;51.504;11.548;2023-01-19T05:24:02;-2.16;88.30
64599;SHT31;51008;51.504;11.548;2023-01-19T05:29:03;-2.05;88.20
64599;SHT31;51008;51.504;11.548;2023-01-19T05:34:04;-2.05;87.99
64599;SHT31;51008;51.504;11.548;2023-01-19T05:39:05;-2.06;88.05
64599;SHT31;51008;51.504;11.548;2023-01-19T05:44:08;-2.06;88.05
64599;SHT31;51008;51.504;11.548;2023-01-19T05:49:10;-2.03;88.41
64599;SHT31;51008;51.504;11.548;2023-01-19T05:54:13;-2.06;88.41
64599;SHT31;51008;51.504;11.548;2023-01-19T05:59:14;-2.05;88.84
64599;SHT31;51008;51.504;11.548;2023-01-19T06:04:15;-1.98;88.84
64599;SHT31;51008;51.504;11.548;2023-01-19T06:09:16;-1.88;88.76
64599;SHT31;51008;51.504;11.548;2023-01-19T06:14:18;-1.90;88.66
64599;SHT31;51008;51.504;11.548;2023-01-19T06:19:18;-1.97;88.86
64599;SHT31;51008;51.504;11.548;2023-01-19T06:24:19;-1.97;89.02
64599;SHT31;51008;51.504;11.548;2023-01-19T06:29:21;-1.94;89.06
64599;SHT31;51008;51.504;11.548;2023-01-19T06:34:22;-1.95;88.90
64599;SHT31;51008;51.504;11.548;2023-01-19T06:39:23;-1.91;89.01
64599;SHT31;51008;51.504;11.548;2023-01-19T06:44:24;-1.85;89.05
64599;SHT31;51008;51.504;11.548;2023-01-19T06:49:25;-1.87;89.04
64599;SHT31;51008;51.504;11.548;2023-01-19T06:54:26;-1.77;89.13
64599;SHT31;51008;51.504;11.548;2023-01-19T06:59:27;-1.64;89.03
64599;SHT31;51008;51.504;11.548;2023-01-19T07:04:28;-1.68;89.10
64599;SHT31;51008;51.504;11.548;2023-01-19T07:09:29;-1.62;88.84
64599;SHT31;51008;51.504;11.548;2023-01-19T07:14:30;-1.64;88.95
64599;SHT31;51008;51.504;11.548;2023-01-19T07:19:31;-1.59;89.14
64599;SHT31;51008;51.504;11.548;2023-01-19T07:24:32;-1.27;88.34
64599;SHT31;51008;51.504;11.548;2023-01-19T07:29:32;-1.25;88.38
64599;SHT31;51008;51.504;11.548;2023-01-19T07:34:33;-1.07;87.44
64599;SHT31;51008;51.504;11.548;2023-01-19T07:39:34;-0.57;85.78
64599;SHT31;51008;51.504;11.548;2023-01-19T07:44:35;-0.42;85.22
64599;SHT31;51008;51.504;11.548;2023-01-19T07:49:37;-0.18;84.38
64599;SHT31;51008;51.504;11.548;2023-01-19T07:54:38;-0.03;83.92
64599;SHT31;51008;51.504;11.548;2023-01-19T07:59:39;0.15;83.45
64599;SHT31;51008;51.504;11.548;2023-01-19T08:04:40;0.40;82.64
64599;SHT31;51008;51.504;11.548;2023-01-19T08:09:41;0.70;81.82
64599;SHT31;51008;51.504;11.548;2023-01-19T08:14:42;0.87;81.66
64599;SHT31;51008;51.504;11.548;2023-01-19T08:19:43;1.07;80.33
64599;SHT31;51008;51.504;11.548;2023-01-19T08:24:44;1.34;79.96
64599;SHT31;51008;51.504;11.548;2023-01-19T08:29:46;1.86;78.27
64599;SHT31;51008;51.504;11.548;2023-01-19T08:34:47;1.65;78.01
64599;SHT31;51008;51.504;11.548;2023-01-19T08:39:48;1.60;78.34
64599;SHT31;51008;51.504;11.548;2023-01-19T08:44:49;1.69;78.75
64599;SHT31;51008;51.504;11.548;2023-01-19T08:49:50;1.97;77.96
64599;SHT31;51008;51.504;11.548;2023-01-19T08:54:51;1.89;77.96
64599;SHT31;51008;51.504;11.548;2023-01-19T08:59:52;1.86;77.92
64599;SHT31;51008;51.504;11.548;2023-01-19T09:04:53;1.62;78.27
64599;SHT31;51008;51.504;11.548;2023-01-19T09:10:13;1.66;78.55
64599;SHT31;51008;51.504;11.548;2023-01-19T09:15:15;1.82;78.46
64599;SHT31;51008;51.504;11.548;2023-01-19T09:20:16;1.94;77.65
64599;SHT31;51008;51.504;11.548;2023-01-19T09:25:17;1.83;78.00
64599;SHT31;51008;51.504;11.548;2023-01-19T09:30:18;1.99;77.32
64599;SHT31;51008;51.504;11.548;2023-01-19T09:35:19;2.29;77.07
64599;SHT31;51008;51.504;11.548;2023-01-19T09:40:20;2.49;75.83
64599;SHT31;51008;51.504;11.548;2023-01-19T09:45:46;2.94;74.63
64599;SHT31;51008;51.504;11.548;2023-01-19T09:50:48;2.77;74.83
64599;SHT31;51008;51.504;11.548;2023-01-19T09:55:49;2.29;75.89
64599;SHT31;51008;51.504;11.548;2023-01-19T10:00:56;2.15;76.98
64599;SHT31;51008;51.504;11.548;2023-01-19T10:06:01;1.90;76.85
64599;SHT31;51008;51.504;11.548;2023-01-19T10:11:03;1.73;77.75
64599;SHT31;51008;51.504;11.548;2023-01-19T10:16:28;1.18;79.17
64599;SHT31;51008;51.504;11.548;2023-01-19T10:21:38;1.20;80.27
64599;SHT31;51008;51.504;11.548;2023-01-19T10:26:52;1.67;78.80
64599;SHT31;51008;51.504;11.548;2023-01-19T10:32:15;2.21;77.80
64599;SHT31;51008;51.504;11.548;2023-01-19T10:42:17;2.38;76.14
64599;SHT31;51008;51.504;11.548;2023-01-19T10:47:20;2.46;76.35
64599;SHT31;51008;51.504;11.548;2023-01-19T10:52:34;2.32;76.27
64599;SHT31;51008;51.504;11.548;2023-01-19T10:57:40;2.39;76.50
64599;SHT31;51008;51.504;11.548;2023-01-19T11:02:49;2.48;75.92
64599;SHT31;51008;51.504;11.548;2023-01-19T11:07:50;2.90;75.92
64599;SHT31;51008;51.504;11.548;2023-01-19T11:12:55;2.79;75.08
64599;SHT31;51008;51.504;11.548;2023-01-19T11:17:58;2.81;75.63
64599;SHT31;51008;51.504;11.548;2023-01-19T11:23:37;2.39;76.23
64599;SHT31;51008;51.504;11.548;2023-01-19T11:28:35;1.96;78.20
64599;SHT31;51008;51.504;11.548;2023-01-19T11:33:49;1.86;78.88
64599;SHT31;51008;51.504;11.548;2023-01-19T11:38:53;2.11;78.06
64599;SHT31;51008;51.504;11.548;2023-01-19T11:44:08;2.35;78.06
64599;SHT31;51008;51.504;11.548;2023-01-19T11:49:19;2.25;77.78
64599;SHT31;51008;51.504;11.548;2023-01-19T11:54:29;2.27;78.34
64599;SHT31;51008;51.504;11.548;2023-01-19T11:59:31;2.27;78.84
64599;SHT31;51008;51.504;11.548;2023-01-19T12:04:37;2.42;78.22
64599;SHT31;51008;51.504;11.548;2023-01-19T12:09:42;2.48;77.62
64599;SHT31;51008;51.504;11.548;2023-01-19T12:14:58;2.42;76.82
64599;SHT31;51008;51.504;11.548;2023-01-19T12:30:42;2.10;77.24
64599;SHT31;51008;51.504;11.548;2023-01-19T12:35:57;2.22;77.99
64599;SHT31;51008;51.504;11.548;2023-01-19T12:41:29;2.38;77.30
64599;SHT31;51008;51.504;11.548;2023-01-19T12:46:31;2.44;77.67
64599;SHT31;51008;51.504;11.548;2023-01-19T12:51:32;2.44;77.47
64599;SHT31;51008;51.504;11.548;2023-01-19T12:56:35;2.31;77.84
64599;SHT31;51008;51.504;11.548;2023-01-19T13:01:37;2.35;78.18
64599;SHT31;51008;51.504;11.548;2023-01-19T13:07:05;2.52;78.01
64599;SHT31;51008;51.504;11.548;2023-01-19T13:12:24;2.60;78.23
64599;SHT31;51008;51.504;11.548;2023-01-19T13:17:48;2.72;78.20
64599;SHT31;51008;51.504;11.548;2023-01-19T13:23:19;2.81;77.54
64599;SHT31;51008;51.504;11.548;2023-01-19T13:28:30;2.83;77.20
64599;SHT31;51008;51.504;11.548;2023-01-19T13:33:45;2.73;77.18
64599;SHT31;51008;51.504;11.548;2023-01-19T13:38:47;2.69;77.55
64599;SHT31;51008;51.504;11.548;2023-01-19T13:43:55;2.57;77.93
64599;SHT31;51008;51.504;11.548;2023-01-19T13:49:16;2.39;78.50
64599;SHT31;51008;51.504;11.548;2023-01-19T13:54:18;2.35;79.17
64599;SHT31;51008;51.504;11.548;2023-01-19T13:59:19;2.34;79.67
64599;SHT31;51008;51.504;11.548;2023-01-19T14:04:30;2.34;79.81
64599;SHT31;51008;51.504;11.548;2023-01-19T14:09:32;2.06;80.91
64599;SHT31;51008;51.504;11.548;2023-01-19T14:14:33;1.94;82.02
64599;SHT31;51008;51.504;11.548;2023-01-19T14:19:50;1.94;82.72
64599;SHT31;51008;51.504;11.548;2023-01-19T14:24:52;1.80;83.72
64599;SHT31;51008;51.504;11.548;2023-01-19T14:29:53;1.84;83.84
64599;SHT31;51008;51.504;11.548;2023-01-19T14:40:02;1.65;85.29
64599;SHT31;51008;51.504;11.548;2023-01-19T14:45:06;1.56;86.52
64599;SHT31;51008;51.504;11.548;2023-01-19T14:55:32;1.37;87.83
64599;SHT31;51008;51.504;11.548;2023-01-19T15:00:34;1.35;88.11
64599;SHT31;51008;51.504;11.548;2023-01-19T15:05:37;1.37;88.18
64599;SHT31;51008;51.504;11.548;2023-01-19T15:10:38;1.24;88.71
64599;SHT31;51008;51.504;11.548;2023-01-19T15:15:39;1.23;88.86
64599;SHT31;51008;51.504;11.548;2023-01-19T15:20:40;1.17;89.17
64599;SHT31;51008;51.504;11.548;2023-01-19T15:25:41;1.08;89.96
64599;SHT31;51008;51.504;11.548;2023-01-19T15:30:42;1.04;90.35
64599;SHT31;51008;51.504;11.548;2023-01-19T15:35:43;1.05;90.60
64599;SHT31;51008;51.504;11.548;2023-01-19T15:40:45;1.04;90.74
64599;SHT31;51008;51.504;11.548;2023-01-19T15:50:50;1.07;90.89
64599;SHT31;51008;51.504;11.548;2023-01-19T15:55:52;1.05;91.15
64599;SHT31;51008;51.504;11.548;2023-01-19T16:00:55;0.97;91.67
64599;SHT31;51008;51.504;11.548;2023-01-19T16:05:59;0.99;91.99
64599;SHT31;51008;51.504;11.548;2023-01-19T16:11:09;1.00;92.10
64599;SHT31;51008;51.504;11.548;2023-01-19T16:16:18;1.03;92.41
64599;SHT31;51008;51.504;11.548;2023-01-19T16:21:20;0.93;92.85
64599;SHT31;51008;51.504;11.548;2023-01-19T16:31:28;0.89;93.88
64599;SHT31;51008;51.504;11.548;2023-01-19T16:36:31;0.96;94.26
64599;SHT31;51008;51.504;11.548;2023-01-19T16:41:33;0.92;94.84
64599;SHT31;51008;51.504;11.548;2023-01-19T16:46:38;0.82;95.70
64599;SHT31;51008;51.504;11.548;2023-01-19T16:51:39;0.80;96.33
64599;SHT31;51008;51.504;11.548;2023-01-19T16:56:40;0.76;96.44
64599;SHT31;51008;51.504;11.548;2023-01-19T17:01:42;0.80;97.09
64599;SHT31;51008;51.504;11.548;2023-01-19T17:06:43;0.70;97.94
64599;SHT31;51008;51.504;11.548;2023-01-19T17:11:44;0.68;98.23
64599;SHT31;51008;51.504;11.548;2023-01-19T17:16:46;0.66;98.28
64599;SHT31;51008;51.504;11.548;2023-01-19T17:21:48;0.65;98.42
64599;SHT31;51008;51.504;11.548;2023-01-19T17:26:49;0.66;98.42
64599;SHT31;51008;51.504;11.548;2023-01-19T17:31:50;0.59;98.65
64599;SHT31;51008;51.504;11.548;2023-01-19T17:36:51;0.64;98.67
64599;SHT31;51008;51.504;11.548;2023-01-19T17:41:52;0.68;98.65
64599;SHT31;51008;51.504;11.548;2023-01-19T17:46:53;0.69;98.56
64599;SHT31;51008;51.504;11.548;2023-01-19T17:51:54;0.73;98.65
64599;SHT31;51008;51.504;11.548;2023-01-19T17:56:55;0.72;98.65
64599;SHT31;51008;51.504;11.548;2023-01-19T18:01:56;0.72;98.58
64599;SHT31;51008;51.504;11.548;2023-01-19T18:06:57;0.72;98.45
64599;SHT31;51008;51.504;11.548;2023-01-19T18:11:58;0.79;98.21
64599;SHT31;51008;51.504;11.548;2023-01-19T18:16:59;0.77;98.25
64599;SHT31;51008;51.504;11.548;2023-01-19T18:22:00;0.79;98.41
64599;SHT31;51008;51.504;11.548;2023-01-19T18:27:19;0.79;98.32
64599;SHT31;51008;51.504;11.548;2023-01-19T18:32:20;0.80;98.38
64599;SHT31;51008;51.504;11.548;2023-01-19T18:37:21;0.83;98.09
64599;SHT31;51008;51.504;11.548;2023-01-19T18:42:22;0.77;97.93
64599;SHT31;51008;51.504;11.548;2023-01-19T18:47:23;0.75;97.88
64599;SHT31;51008;51.504;11.548;2023-01-19T18:52:24;0.77;97.89
64599;SHT31;51008;51.504;11.548;2023-01-19T18:57:25;0.79;97.57
64599;SHT31;51008;51.504;11.548;2023-01-19T19:02:26;0.77;97.24
64599;SHT31;51008;51.504;11.548;2023-01-19T19:07:27;0.77;97.18
64599;SHT31;51008;51.504;11.548;2023-01-19T19:12:28;0.80;96.93
64599;SHT31;51008;51.504;11.548;2023-01-19T19:17:29;0.73;96.87
64599;SHT31;51008;51.504;11.548;2023-01-19T19:22:30;0.80;96.22
64599;SHT31;51008;51.504;11.548;2023-01-19T19:27:31;0.77;95.98
64599;SHT31;51008;51.504;11.548;2023-01-19T19:32:32;0.73;95.56
64599;SHT31;51008;51.504;11.548;2023-01-19T19:37:33;0.62;95.28
64599;SHT31;51008;51.504;11.548;2023-01-19T19:42:34;0.42;94.87
64599;SHT31;51008;51.504;11.548;2023-01-19T19:47:35;0.24;94.67
64599;SHT31;51008;51.504;11.548;2023-01-19T19:52:40;0.10;94.71
64599;SHT31;51008;51.504;11.548;2023-01-19T19:57:41;0.00;94.52
64599;SHT31;51008;51.504;11.548;2023-01-19T20:02:43;0.03;94.86
64599;SHT31;51008;51.504;11.548;2023-01-19T20:07:45;0.13;94.81
64599;SHT31;51008;51.504;11.548;2023-01-19T20:12:46;0.09;94.55
64599;SHT31;51008;51.504;11.548;2023-01-19T20:17:47;-0.01;93.97
64599;SHT31;51008;51.504;11.548;2023-01-19T20:22:48;-0.11;94.14
64599;SHT31;51008;51.504;11.548;2023-01-19T20:27:49;-0.22;94.67
64599;SHT31;51008;51.504;11.548;2023-01-19T20:32:50;-0.26;95.69
64599;SHT31;51008;51.504;11.548;2023-01-19T20:37:51;-0.26;96.29
64599;SHT31;51008;51.504;11.548;2023-01-19T20:42:51;-0.32;96.49
64599;SHT31;51008;51.504;11.548;2023-01-19T20:47:52;-0.38;96.51
64599;SHT31;51008;51.504;11.548;2023-01-19T20:52:53;-0.39;96.94
64599;SHT31;51008;51.504;11.548;2023-01-19T20:57:54;-0.42;96.84
64599;SHT31;51008;51.504;11.548;2023-01-19T21:02:55;-0.33;96.98
64599;SHT31;51008;51.504;11.548;2023-01-19T21:07:56;-0.35;96.91
64599;SHT31;51008;51.504;11.548;2023-01-19T21:12:57;-0.33;97.08
64599;SHT31;51008;51.504;11.548;2023-01-19T21:17:58;-0.45;97.26
64599;SHT31;51008;51.504;11.548;2023-01-19T21:22:59;-0.48;97.24
64599;SHT31;51008;51.504;11.548;2023-01-19T21:28:00;-0.45;97.48
64599;SHT31;51008;51.504;11.548;2023-01-19T21:33:01;-0.22;97.44
64599;SHT31;51008;51.504;11.548;2023-01-19T21:38:03;-0.13;97.14
64599;SHT31;51008;51.504;11.548;2023-01-19T21:43:04;-0.11;97.18
64599;SHT31;51008;51.504;11.548;2023-01-19T21:48:05;-0.10;97.20
64599;SHT31;51008;51.504;11.548;2023-01-19T21:53:06;-0.17;97.20
64599;SHT31;51008;51.504;11.548;2023-01-19T21:58:07;-0.13;97.13
64599;SHT31;51008;51.504;11.548;2023-01-19T22:03:08;-0.14;97.37
64599;SHT31;51008;51.504;11.548;2023-01-19T22:08:09;-0.18;97.53
64599;SHT31;51008;51.504;11.548;2023-01-19T22:13:10;-0.13;97.31
64599;SHT31;51008;51.504;11.548;2023-01-19T22:18:11;-0.10;96.86
64599;SHT31;51008;51.504;11.548;2023-01-19T22:23:12;-0.14;96.70
64599;SHT31;51008;51.504;11.548;2023-01-19T22:28:13;-0.07;96.52
64599;SHT31;51008;51.504;11.548;2023-01-19T22:33:14;-0.11;96.67
64599;SHT31;51008;51.504;11.548;2023-01-19T22:38:15;-0.07;96.31
64599;SHT31;51008;51.504;11.548;2023-01-19T22:43:16;-0.01;96.24
64599;SHT31;51008;51.504;11.548;2023-01-19T22:48:17;-0.01;96.28
64599;SHT31;51008;51.504;11.548;2023-01-19T22:53:18;-0.01;96.13
64599;SHT31;51008;51.504;11.548;2023-01-19T22:58:19;0.00;96.21
64599;SHT31;51008;51.504;11.548;2023-01-19T23:03:20;-0.04;96.23
64599;SHT31;51008;51.504;11.548;2023-01-19T23:08:21;0.04;96.21
64599;SHT31;51008;51.504;11.548;2023-01-19T23:13:22;0.03;96.26
64599;SHT31;51008;51.504;11.548;2023-01-19T23:18:23;0.04;96.23
64599;SHT31;51008;51.504;11.548;2023-01-19T23:23:24;0.03;96.16
64599;SHT31;51008;51.504;11.548;2023-01-19T23:28:25;0.07;95.96
64599;SHT31;51008;51.504;11.548;2023-01-19T23:33:26;0.07;95.73
64599;SHT31;51008;51.504;11.548;2023-01-19T23:38:27;0.03;95.66
64599;SHT31;51008;51.504;11.548;2023-01-19T23:43:28;0.02;95.61
64599;SHT31;51008;51.504;11.548;2023-01-19T23:48:29;0.02;95.27
64599;SHT31;51008;51.504;11.548;2023-01-19T23:53:30;0.00;95.13
64599;SHT31;51008;51.504;11.548;2023-01-19T23:58:31;-0.01;94.83
